sensor_id;sensor_type;location;lat;lon;timestamp;temperature;humidity
56308;DHT22;42217;50.422;7.210;2023-07-13T00:00:15;15.50;1.00
56308;DHT22;42217;50.422;7.210;2023-07-13T00:02:42;15.40;1.00
56308;DHT22;42217;50.422;7.210;2023-07-13T00:05:08;15.40;1.00
56308;DHT22;42217;50.422;7.210;2023-07-13T00:07:35;15.40;1.00
56308;DHT22;42217;50.422;7.210;2023-07-13T00:10:01;15.30;1.00
56308;DHT22;42217;50.422;7.210;2023-07-13T00:12:34;15.30;1.00
56308;DHT22;42217;50.422;7.210;2023-07-13T00:15:02;15.20;1.00
56308;DHT22;42217;50.422;7.210;2023-07-13T00:17:29;15.10;1.00
56308;DHT22;42217;50.422;7.210;2023-07-13T00:19:55;15.10;1.00
56308;DHT22;42217;50.422;7.210;2023-07-13T00:22:22;15.00;1.00
56308;DHT22;42217;50.422;7.210;2023-07-13T00:24:49;15.10;1.00
56308;DHT22;42217;50.422;7.210;2023-07-13T00:27:16;15.10;1.00
56308;DHT22;42217;50.422;7.210;2023-07-13T00:29:43;15.10;1.00
56308;DHT22;42217;50.422;7.210;2023-07-13T00:32:09;15.00;1.00
56308;DHT22;42217;50.422;7.210;2023-07-13T00:34:35;14.90;1.00
56308;DHT22;42217;50.422;7.210;2023-07-13T00:37:01;14.80;1.00
56308;DHT22;42217;50.422;7.210;2023-07-13T00:39:27;14.70;1.00
56308;DHT22;42217;50.422;7.210;2023-07-13T00:41:53;14.60;1.00
56308;DHT22;42217;50.422;7.210;2023-07-13T00:44:20;14.60;1.00
56308;DHT22;42217;50.422;7.210;2023-07-13T00:46:48;14.60;1.00
56308;DHT22;42217;50.422;7.210;2023-07-13T00:49:17;14.70;1.00
56308;DHT22;42217;50.422;7.210;2023-07-13T00:52:05;14.70;1.00
56308;DHT22;42217;50.422;7.210;2023-07-13T00:54:38;14.80;1.00
56308;DHT22;42217;50.422;7.210;2023-07-13T00:57:07;14.70;1.00
56308;DHT22;42217;50.422;7.210;2023-07-13T00:59:35;14.60;1.00
56308;DHT22;42217;50.422;7.210;2023-07-13T01:02:02;14.60;1.00
56308;DHT22;42217;50.422;7.210;2023-07-13T01:04:28;14.50;1.00
56308;DHT22;42217;50.422;7.210;2023-07-13T01:06:54;14.40;1.00
56308;DHT22;42217;50.422;7.210;2023-07-13T01:09:20;14.30;1.00
56308;DHT22;42217;50.422;7.210;2023-07-13T01:11:46;14.30;1.00
56308;DHT22;42217;50.422;7.210;2023-07-13T01:14:13;14.30;1.00
56308;DHT22;42217;50.422;7.210;2023-07-13T01:16:41;14.20;1.00
56308;DHT22;42217;50.422;7.210;2023-07-13T01:21:41;13.90;16.90
56308;DHT22;42217;50.422;7.210;2023-07-13T01:24:08;13.60;24.70
56308;DHT22;42217;50.422;7.210;2023-07-13T01:26:34;13.50;30.20
56308;DHT22;42217;50.422;7.210;2023-07-13T01:29:00;13.50;33.30
56308;DHT22;42217;50.422;7.210;2023-07-13T01:31:26;13.30;43.50
56308;DHT22;42217;50.422;7.210;2023-07-13T01:33:52;13.20;46.50
56308;DHT22;42217;50.422;7.210;2023-07-13T01:36:17;13.20;49.70
56308;DHT22;42217;50.422;7.210;2023-07-13T01:38:43;13.00;58.40
56308;DHT22;42217;50.422;7.210;2023-07-13T01:41:08;12.90;61.20
56308;DHT22;42217;50.422;7.210;2023-07-13T01:43:34;12.90;61.00
56308;DHT22;42217;50.422;7.210;2023-07-13T01:46:00;12.90;62.00
56308;DHT22;42217;50.422;7.210;2023-07-13T01:48:25;12.80;65.40
56308;DHT22;42217;50.422;7.210;2023-07-13T01:50:51;12.70;70.90
56308;DHT22;42217;50.422;7.210;2023-07-13T01:53:16;12.60;70.30
56308;DHT22;42217;50.422;7.210;2023-07-13T01:55:42;12.50;74.50
56308;DHT22;42217;50.422;7.210;2023-07-13T01:58:08;12.40;77.20
56308;DHT22;42217;50.422;7.210;2023-07-13T02:00:34;12.30;80.30
56308;DHT22;42217;50.422;7.210;2023-07-13T02:02:59;12.20;85.80
56308;DHT22;42217;50.422;7.210;2023-07-13T02:05:25;12.00;90.40
56308;DHT22;42217;50.422;7.210;2023-07-13T02:07:51;11.70;93.60
56308;DHT22;42217;50.422;7.210;2023-07-13T02:10:18;11.60;96.40
56308;DHT22;42217;50.422;7.210;2023-07-13T02:12:44;11.80;94.60
56308;DHT22;42217;50.422;7.210;2023-07-13T02:15:10;11.90;93.20
56308;DHT22;42217;50.422;7.210;2023-07-13T02:17:36;12.00;91.20
56308;DHT22;42217;50.422;7.210;2023-07-13T02:20:03;11.70;93.20
56308;DHT22;42217;50.422;7.210;2023-07-13T02:22:30;11.50;97.90
56308;DHT22;42217;50.422;7.210;2023-07-13T02:24:56;11.30;99.90
56308;DHT22;42217;50.422;7.210;2023-07-13T02:27:21;11.60;96.90
56308;DHT22;42217;50.422;7.210;2023-07-13T02:29:47;11.90;88.90
56308;DHT22;42217;50.422;7.210;2023-07-13T02:32:13;12.40;71.30
56308;DHT22;42217;50.422;7.210;2023-07-13T02:34:40;12.90;50.70
56308;DHT22;42217;50.422;7.210;2023-07-13T02:37:05;13.50;27.30
56308;DHT22;42217;50.422;7.210;2023-07-13T02:39:31;13.80;10.80
56308;DHT22;42217;50.422;7.210;2023-07-13T02:41:59;14.00;1.00
56308;DHT22;42217;50.422;7.210;2023-07-13T02:44:25;14.20;1.00
56308;DHT22;42217;50.422;7.210;2023-07-13T02:46:50;14.20;1.00
56308;DHT22;42217;50.422;7.210;2023-07-13T02:49:16;14.20;1.00
56308;DHT22;42217;50.422;7.210;2023-07-13T02:51:42;14.30;1.00
56308;DHT22;42217;50.422;7.210;2023-07-13T02:54:08;14.40;1.00
56308;DHT22;42217;50.422;7.210;2023-07-13T02:56:34;14.40;1.00
56308;DHT22;42217;50.422;7.210;2023-07-13T02:59:00;14.50;1.00
56308;DHT22;42217;50.422;7.210;2023-07-13T03:01:26;14.50;1.00
56308;DHT22;42217;50.422;7.210;2023-07-13T03:03:52;14.50;1.00
56308;DHT22;42217;50.422;7.210;2023-07-13T03:06:19;14.50;1.00
56308;DHT22;42217;50.422;7.210;2023-07-13T03:08:45;14.60;1.00
56308;DHT22;42217;50.422;7.210;2023-07-13T03:11:14;14.50;1.00
56308;DHT22;42217;50.422;7.210;2023-07-13T03:13:41;14.60;1.00
56308;DHT22;42217;50.422;7.210;2023-07-13T03:16:08;14.60;1.00
56308;DHT22;42217;50.422;7.210;2023-07-13T03:18:35;14.60;1.00
56308;DHT22;42217;50.422;7.210;2023-07-13T03:21:01;14.60;1.00
56308;DHT22;42217;50.422;7.210;2023-07-13T03:23:27;14.60;1.00
56308;DHT22;42217;50.422;7.210;2023-07-13T03:26:05;14.60;1.00
56308;DHT22;42217;50.422;7.210;2023-07-13T03:28:31;14.50;1.00
56308;DHT22;42217;50.422;7.210;2023-07-13T03:31:13;14.60;1.00
56308;DHT22;42217;50.422;7.210;2023-07-13T03:33:39;14.60;1.00
56308;DHT22;42217;50.422;7.210;2023-07-13T03:36:06;14.60;1.00
56308;DHT22;42217;50.422;7.210;2023-07-13T03:38:32;14.60;1.00
56308;DHT22;42217;50.422;7.210;2023-07-13T03:40:58;14.60;1.00
56308;DHT22;42217;50.422;7.210;2023-07-13T03:43:24;14.70;1.00
56308;DHT22;42217;50.422;7.210;2023-07-13T03:45:50;14.60;1.00
56308;DHT22;42217;50.422;7.210;2023-07-13T03:48:16;14.70;1.00
56308;DHT22;42217;50.422;7.210;2023-07-13T03:50:41;14.60;1.00
56308;DHT22;42217;50.422;7.210;2023-07-13T03:53:07;14.60;1.00
56308;DHT22;42217;50.422;7.210;2023-07-13T03:55:33;14.60;1.20
56308;DHT22;42217;50.422;7.210;2023-07-13T04:00:53;14.60;6.80
56308;DHT22;42217;50.422;7.210;2023-07-13T04:03:19;14.60;9.50
56308;DHT22;42217;50.422;7.210;2023-07-13T04:05:44;14.60;11.80
56308;DHT22;42217;50.422;7.210;2023-07-13T04:08:10;14.50;15.80
56308;DHT22;42217;50.422;7.210;2023-07-13T04:10:36;14.60;15.20
56308;DHT22;42217;50.422;7.210;2023-07-13T04:13:01;14.60;17.00
56308;DHT22;42217;50.422;7.210;2023-07-13T04:15:31;14.60;19.90
56308;DHT22;42217;50.422;7.210;2023-07-13T04:17:57;14.60;19.40
56308;DHT22;42217;50.422;7.210;2023-07-13T04:20:23;14.60;20.70
56308;DHT22;42217;50.422;7.210;2023-07-13T04:22:49;14.60;22.10
56308;DHT22;42217;50.422;7.210;2023-07-13T04:25:15;14.60;23.40
56308;DHT22;42217;50.422;7.210;2023-07-13T04:27:41;14.60;22.90
56308;DHT22;42217;50.422;7.210;2023-07-13T04:30:07;14.70;24.10
56308;DHT22;42217;50.422;7.210;2023-07-13T04:32:33;14.60;27.50
56308;DHT22;42217;50.422;7.210;2023-07-13T04:34:59;14.60;28.00
56308;DHT22;42217;50.422;7.210;2023-07-13T04:37:27;14.60;31.20
56308;DHT22;42217;50.422;7.210;2023-07-13T04:39:54;14.60;31.30
56308;DHT22;42217;50.422;7.210;2023-07-13T04:42:20;14.60;34.80
56308;DHT22;42217;50.422;7.210;2023-07-13T04:44:50;14.60;36.50
56308;DHT22;42217;50.422;7.210;2023-07-13T04:47:16;14.60;38.60
56308;DHT22;42217;50.422;7.210;2023-07-13T04:49:42;14.60;38.70
56308;DHT22;42217;50.422;7.210;2023-07-13T04:52:08;14.50;41.00
56308;DHT22;42217;50.422;7.210;2023-07-13T04:54:34;14.60;41.30
56308;DHT22;42217;50.422;7.210;2023-07-13T04:57:01;14.60;38.80
56308;DHT22;42217;50.422;7.210;2023-07-13T04:59:27;14.60;37.40
56308;DHT22;42217;50.422;7.210;2023-07-13T05:01:54;14.60;39.20
56308;DHT22;42217;50.422;7.210;2023-07-13T05:04:20;14.60;43.00
56308;DHT22;42217;50.422;7.210;2023-07-13T05:06:45;14.50;42.60
56308;DHT22;42217;50.422;7.210;2023-07-13T05:09:11;14.50;46.50
56308;DHT22;42217;50.422;7.210;2023-07-13T05:11:38;14.50;53.90
56308;DHT22;42217;50.422;7.210;2023-07-13T05:14:04;14.50;57.00
56308;DHT22;42217;50.422;7.210;2023-07-13T05:16:29;14.50;52.90
56308;DHT22;42217;50.422;7.210;2023-07-13T05:18:55;14.40;54.50
56308;DHT22;42217;50.422;7.210;2023-07-13T05:21:21;14.40;59.40
56308;DHT22;42217;50.422;7.210;2023-07-13T05:23:47;14.50;58.20
56308;DHT22;42217;50.422;7.210;2023-07-13T05:26:12;14.70;52.70
56308;DHT22;42217;50.422;7.210;2023-07-13T05:28:38;14.60;51.70
56308;DHT22;42217;50.422;7.210;2023-07-13T05:31:06;14.60;53.40
56308;DHT22;42217;50.422;7.210;2023-07-13T05:33:32;14.60;50.80
56308;DHT22;42217;50.422;7.210;2023-07-13T05:35:58;14.60;42.00
56308;DHT22;42217;50.422;7.210;2023-07-13T05:38:26;14.70;35.80
56308;DHT22;42217;50.422;7.210;2023-07-13T05:40:54;14.70;34.70
56308;DHT22;42217;50.422;7.210;2023-07-13T05:43:21;14.70;36.60
56308;DHT22;42217;50.422;7.210;2023-07-13T05:45:47;14.70;36.30
56308;DHT22;42217;50.422;7.210;2023-07-13T05:48:13;14.70;36.50
56308;DHT22;42217;50.422;7.210;2023-07-13T05:50:39;14.70;34.90
56308;DHT22;42217;50.422;7.210;2023-07-13T05:53:04;14.70;37.40
56308;DHT22;42217;50.422;7.210;2023-07-13T05:55:30;14.80;36.30
56308;DHT22;42217;50.422;7.210;2023-07-13T05:57:56;14.90;33.40
56308;DHT22;42217;50.422;7.210;2023-07-13T06:00:23;15.00;32.10
56308;DHT22;42217;50.422;7.210;2023-07-13T06:02:50;15.10;29.70
56308;DHT22;42217;50.422;7.210;2023-07-13T06:05:15;15.20;25.90
56308;DHT22;42217;50.422;7.210;2023-07-13T06:07:42;15.30;24.20
56308;DHT22;42217;50.422;7.210;2023-07-13T06:10:08;15.40;24.10
56308;DHT22;42217;50.422;7.210;2023-07-13T06:12:34;15.40;21.60
56308;DHT22;42217;50.422;7.210;2023-07-13T06:14:59;15.70;20.00
56308;DHT22;42217;50.422;7.210;2023-07-13T06:17:25;16.10;8.80
56308;DHT22;42217;50.422;7.210;2023-07-13T06:19:51;16.60;1.00
56308;DHT22;42217;50.422;7.210;2023-07-13T06:22:16;17.10;1.00
56308;DHT22;42217;50.422;7.210;2023-07-13T06:24:42;17.60;99.90
56308;DHT22;42217;50.422;7.210;2023-07-13T06:27:08;17.90;99.90
56308;DHT22;42217;50.422;7.210;2023-07-13T06:29:33;18.10;99.90
56308;DHT22;42217;50.422;7.210;2023-07-13T06:31:59;18.20;99.90
56308;DHT22;42217;50.422;7.210;2023-07-13T06:34:25;18.50;99.90
56308;DHT22;42217;50.422;7.210;2023-07-13T06:36:51;18.60;99.90
56308;DHT22;42217;50.422;7.210;2023-07-13T06:39:16;18.80;99.90
56308;DHT22;42217;50.422;7.210;2023-07-13T06:41:42;19.10;99.90
56308;DHT22;42217;50.422;7.210;2023-07-13T06:44:08;19.20;99.90
56308;DHT22;42217;50.422;7.210;2023-07-13T06:46:34;19.40;99.90
56308;DHT22;42217;50.422;7.210;2023-07-13T06:48:59;19.60;99.90
56308;DHT22;42217;50.422;7.210;2023-07-13T06:51:25;19.50;99.90
56308;DHT22;42217;50.422;7.210;2023-07-13T06:53:51;19.30;99.90
56308;DHT22;42217;50.422;7.210;2023-07-13T06:56:17;19.30;99.90
56308;DHT22;42217;50.422;7.210;2023-07-13T06:58:43;19.60;99.90
56308;DHT22;42217;50.422;7.210;2023-07-13T07:01:09;19.80;99.90
56308;DHT22;42217;50.422;7.210;2023-07-13T07:03:35;19.70;99.90
56308;DHT22;42217;50.422;7.210;2023-07-13T07:06:03;19.90;99.90
56308;DHT22;42217;50.422;7.210;2023-07-13T07:08:32;19.70;99.90
56308;DHT22;42217;50.422;7.210;2023-07-13T07:10:57;19.70;99.90
56308;DHT22;42217;50.422;7.210;2023-07-13T07:13:23;19.70;99.90
56308;DHT22;42217;50.422;7.210;2023-07-13T07:15:50;19.80;99.90
56308;DHT22;42217;50.422;7.210;2023-07-13T07:18:16;19.70;99.90
56308;DHT22;42217;50.422;7.210;2023-07-13T07:20:42;19.50;99.90
56308;DHT22;42217;50.422;7.210;2023-07-13T07:23:07;19.30;99.90
56308;DHT22;42217;50.422;7.210;2023-07-13T07:25:33;19.30;99.90
56308;DHT22;42217;50.422;7.210;2023-07-13T07:28:02;19.30;99.90
56308;DHT22;42217;50.422;7.210;2023-07-13T07:30:28;19.50;99.90
56308;DHT22;42217;50.422;7.210;2023-07-13T07:32:54;19.60;99.90
56308;DHT22;42217;50.422;7.210;2023-07-13T07:35:19;19.70;99.90
56308;DHT22;42217;50.422;7.210;2023-07-13T07:37:46;19.80;99.90
56308;DHT22;42217;50.422;7.210;2023-07-13T07:40:11;19.90;99.90
56308;DHT22;42217;50.422;7.210;2023-07-13T07:42:37;20.10;99.90
56308;DHT22;42217;50.422;7.210;2023-07-13T07:45:03;20.10;99.90
56308;DHT22;42217;50.422;7.210;2023-07-13T07:47:29;20.00;99.90
56308;DHT22;42217;50.422;7.210;2023-07-13T07:49:55;20.10;99.90
56308;DHT22;42217;50.422;7.210;2023-07-13T07:52:20;20.10;99.90
56308;DHT22;42217;50.422;7.210;2023-07-13T07:54:46;20.00;99.90
56308;DHT22;42217;50.422;7.210;2023-07-13T07:57:12;20.00;99.90
56308;DHT22;42217;50.422;7.210;2023-07-13T07:59:37;20.20;99.90
56308;DHT22;42217;50.422;7.210;2023-07-13T08:02:04;20.20;99.90
56308;DHT22;42217;50.422;7.210;2023-07-13T08:04:29;20.10;99.90
56308;DHT22;42217;50.422;7.210;2023-07-13T08:06:55;20.10;99.90
56308;DHT22;42217;50.422;7.210;2023-07-13T08:09:22;20.30;99.90
56308;DHT22;42217;50.422;7.210;2023-07-13T08:11:47;20.30;99.90
56308;DHT22;42217;50.422;7.210;2023-07-13T08:14:13;20.50;99.90
56308;DHT22;42217;50.422;7.210;2023-07-13T08:16:39;20.60;99.90
56308;DHT22;42217;50.422;7.210;2023-07-13T08:19:05;20.60;99.90
56308;DHT22;42217;50.422;7.210;2023-07-13T08:21:31;20.40;99.90
56308;DHT22;42217;50.422;7.210;2023-07-13T08:23:57;20.10;99.90
56308;DHT22;42217;50.422;7.210;2023-07-13T08:26:23;20.20;99.90
56308;DHT22;42217;50.422;7.210;2023-07-13T08:28:48;20.30;99.90
56308;DHT22;42217;50.422;7.210;2023-07-13T08:31:14;20.50;99.90
56308;DHT22;42217;50.422;7.210;2023-07-13T08:33:40;20.40;99.90
56308;DHT22;42217;50.422;7.210;2023-07-13T08:36:06;20.60;99.90
56308;DHT22;42217;50.422;7.210;2023-07-13T08:38:32;20.70;99.90
56308;DHT22;42217;50.422;7.210;2023-07-13T08:40:58;20.70;99.90
56308;DHT22;42217;50.422;7.210;2023-07-13T08:43:35;20.80;99.90
56308;DHT22;42217;50.422;7.210;2023-07-13T08:46:28;20.80;99.90
56308;DHT22;42217;50.422;7.210;2023-07-13T08:49:18;20.60;99.90
56308;DHT22;42217;50.422;7.210;2023-07-13T08:56:50;20.70;99.90
56308;DHT22;42217;50.422;7.210;2023-07-13T08:59:21;20.80;99.80
56308;DHT22;42217;50.422;7.210;2023-07-13T09:02:03;20.70;99.80
56308;DHT22;42217;50.422;7.210;2023-07-13T09:04:37;20.80;99.80
56308;DHT22;42217;50.422;7.210;2023-07-13T09:12:17;21.40;99.30
56308;DHT22;42217;50.422;7.210;2023-07-13T09:14:52;21.70;99.20
56308;DHT22;42217;50.422;7.210;2023-07-13T09:19:55;21.60;97.80
56308;DHT22;42217;50.422;7.210;2023-07-13T09:22:23;21.50;98.30
56308;DHT22;42217;50.422;7.210;2023-07-13T09:27:53;22.00;98.50
56308;DHT22;42217;50.422;7.210;2023-07-13T09:30:34;22.30;97.10
56308;DHT22;42217;50.422;7.210;2023-07-13T09:33:03;22.40;97.30
56308;DHT22;42217;50.422;7.210;2023-07-13T09:35:30;22.60;96.70
56308;DHT22;42217;50.422;7.210;2023-07-13T09:38:13;22.90;96.40
56308;DHT22;42217;50.422;7.210;2023-07-13T09:43:15;22.40;95.50
56308;DHT22;42217;50.422;7.210;2023-07-13T09:45:45;22.20;95.60
56308;DHT22;42217;50.422;7.210;2023-07-13T09:48:13;22.20;95.00
56308;DHT22;42217;50.422;7.210;2023-07-13T09:50:40;22.20;95.20
56308;DHT22;42217;50.422;7.210;2023-07-13T09:53:13;22.10;94.60
56308;DHT22;42217;50.422;7.210;2023-07-13T09:55:39;22.20;94.60
56308;DHT22;42217;50.422;7.210;2023-07-13T10:00:41;21.90;94.40
56308;DHT22;42217;50.422;7.210;2023-07-13T10:03:23;21.80;95.10
56308;DHT22;42217;50.422;7.210;2023-07-13T10:05:51;22.00;94.50
56308;DHT22;42217;50.422;7.210;2023-07-13T10:10:44;22.00;95.00
56308;DHT22;42217;50.422;7.210;2023-07-13T10:13:43;22.30;94.80
56308;DHT22;42217;50.422;7.210;2023-07-13T10:16:10;23.20;94.00
56308;DHT22;42217;50.422;7.210;2023-07-13T10:21:20;23.30;93.20
56308;DHT22;42217;50.422;7.210;2023-07-13T10:24:19;23.40;93.10
56308;DHT22;42217;50.422;7.210;2023-07-13T10:27:34;23.80;93.10
56308;DHT22;42217;50.422;7.210;2023-07-13T10:29:38;23.80;91.90
56308;DHT22;42217;50.422;7.210;2023-07-13T10:32:09;23.30;91.40
56308;DHT22;42217;50.422;7.210;2023-07-13T10:34:36;22.90;91.90
56308;DHT22;42217;50.422;7.210;2023-07-13T10:37:02;22.90;92.50
56308;DHT22;42217;50.422;7.210;2023-07-13T10:39:28;23.40;91.50
56308;DHT22;42217;50.422;7.210;2023-07-13T10:42:02;23.50;91.30
56308;DHT22;42217;50.422;7.210;2023-07-13T10:44:31;23.50;90.30
56308;DHT22;42217;50.422;7.210;2023-07-13T10:47:10;23.50;91.00
56308;DHT22;42217;50.422;7.210;2023-07-13T10:49:39;23.60;90.70
56308;DHT22;42217;50.422;7.210;2023-07-13T10:52:06;23.50;90.10
56308;DHT22;42217;50.422;7.210;2023-07-13T10:54:32;23.30;90.70
56308;DHT22;42217;50.422;7.210;2023-07-13T10:57:19;22.90;90.40
56308;DHT22;42217;50.422;7.210;2023-07-13T11:02:35;22.60;91.60
56308;DHT22;42217;50.422;7.210;2023-07-13T11:05:26;22.60;91.60
56308;DHT22;42217;50.422;7.210;2023-07-13T11:08:54;22.60;91.60
56308;DHT22;42217;50.422;7.210;2023-07-13T11:10:53;22.70;91.60
56308;DHT22;42217;50.422;7.210;2023-07-13T11:21:28;22.80;90.90
56308;DHT22;42217;50.422;7.210;2023-07-13T11:24:12;23.00;91.10
56308;DHT22;42217;50.422;7.210;2023-07-13T11:26:40;23.20;90.40
56308;DHT22;42217;50.422;7.210;2023-07-13T11:31:41;24.10;90.20
56308;DHT22;42217;50.422;7.210;2023-07-13T11:34:14;24.30;88.20
56308;DHT22;42217;50.422;7.210;2023-07-13T11:36:43;24.20;88.80
56308;DHT22;42217;50.422;7.210;2023-07-13T11:41:53;24.00;89.00
56308;DHT22;42217;50.422;7.210;2023-07-13T11:44:23;24.20;89.30
56308;DHT22;42217;50.422;7.210;2023-07-13T11:47:07;24.40;88.50
56308;DHT22;42217;50.422;7.210;2023-07-13T11:49:42;24.30;89.00
56308;DHT22;42217;50.422;7.210;2023-07-13T11:52:18;24.60;89.60
56308;DHT22;42217;50.422;7.210;2023-07-13T11:54:55;24.80;87.30
56308;DHT22;42217;50.422;7.210;2023-07-13T11:59:51;24.60;86.60
56308;DHT22;42217;50.422;7.210;2023-07-13T12:02:29;24.60;86.20
56308;DHT22;42217;50.422;7.210;2023-07-13T12:04:57;24.80;85.90
56308;DHT22;42217;50.422;7.210;2023-07-13T12:07:24;24.50;86.30
56308;DHT22;42217;50.422;7.210;2023-07-13T12:09:50;24.20;86.20
56308;DHT22;42217;50.422;7.210;2023-07-13T12:12:21;23.80;86.60
56308;DHT22;42217;50.422;7.210;2023-07-13T12:14:50;23.80;87.10
56308;DHT22;42217;50.422;7.210;2023-07-13T12:17:20;23.80;86.90
56308;DHT22;42217;50.422;7.210;2023-07-13T12:19:47;23.80;85.90
56308;DHT22;42217;50.422;7.210;2023-07-13T12:22:14;24.10;85.50
56308;DHT22;42217;50.422;7.210;2023-07-13T12:24:41;24.30;85.10
56308;DHT22;42217;50.422;7.210;2023-07-13T12:27:22;24.40;84.50
56308;DHT22;42217;50.422;7.210;2023-07-13T12:29:51;24.30;84.50
56308;DHT22;42217;50.422;7.210;2023-07-13T12:32:19;23.70;84.60
56308;DHT22;42217;50.422;7.210;2023-07-13T12:34:56;23.10;86.30
56308;DHT22;42217;50.422;7.210;2023-07-13T12:37:23;22.80;87.60
56308;DHT22;42217;50.422;7.210;2023-07-13T12:39:50;23.30;88.30
56308;DHT22;42217;50.422;7.210;2023-07-13T12:42:24;23.90;86.30
56308;DHT22;42217;50.422;7.210;2023-07-13T12:44:58;24.40;84.20
56308;DHT22;42217;50.422;7.210;2023-07-13T12:47:25;24.70;84.40
56308;DHT22;42217;50.422;7.210;2023-07-13T12:49:58;25.40;82.70
56308;DHT22;42217;50.422;7.210;2023-07-13T12:52:33;25.20;82.20
56308;DHT22;42217;50.422;7.210;2023-07-13T12:55:04;24.60;82.40
56308;DHT22;42217;50.422;7.210;2023-07-13T12:57:30;24.40;83.20
56308;DHT22;42217;50.422;7.210;2023-07-13T12:59:56;24.60;84.60
56308;DHT22;42217;50.422;7.210;2023-07-13T13:02:30;25.20;83.70
56308;DHT22;42217;50.422;7.210;2023-07-13T13:04:57;25.50;82.50
56308;DHT22;42217;50.422;7.210;2023-07-13T13:07:24;25.60;82.20
56308;DHT22;42217;50.422;7.210;2023-07-13T13:09:50;25.70;82.30
56308;DHT22;42217;50.422;7.210;2023-07-13T13:12:15;26.00;82.70
56308;DHT22;42217;50.422;7.210;2023-07-13T13:14:42;26.30;80.50
56308;DHT22;42217;50.422;7.210;2023-07-13T13:17:23;25.60;80.50
56308;DHT22;42217;50.422;7.210;2023-07-13T13:19:50;24.80;80.70
56308;DHT22;42217;50.422;7.210;2023-07-13T13:22:19;24.60;82.40
56308;DHT22;42217;50.422;7.210;2023-07-13T13:24:45;24.00;82.60
56308;DHT22;42217;50.422;7.210;2023-07-13T13:27:17;23.60;83.80
56308;DHT22;42217;50.422;7.210;2023-07-13T13:29:44;23.70;84.50
56308;DHT22;42217;50.422;7.210;2023-07-13T13:32:14;23.70;84.60
56308;DHT22;42217;50.422;7.210;2023-07-13T13:34:40;23.70;84.90
56308;DHT22;42217;50.422;7.210;2023-07-13T13:37:32;23.50;85.20
56308;DHT22;42217;50.422;7.210;2023-07-13T13:39:58;23.70;85.00
56308;DHT22;42217;50.422;7.210;2023-07-13T13:42:24;23.70;84.60
56308;DHT22;42217;50.422;7.210;2023-07-13T13:44:51;23.90;85.40
56308;DHT22;42217;50.422;7.210;2023-07-13T13:47:28;24.00;85.40
56308;DHT22;42217;50.422;7.210;2023-07-13T13:49:54;24.20;84.90
56308;DHT22;42217;50.422;7.210;2023-07-13T13:52:20;24.30;84.50
56308;DHT22;42217;50.422;7.210;2023-07-13T13:54:46;24.30;84.50
56308;DHT22;42217;50.422;7.210;2023-07-13T13:57:11;24.10;84.20
56308;DHT22;42217;50.422;7.210;2023-07-13T13:59:38;24.10;84.90
56308;DHT22;42217;50.422;7.210;2023-07-13T14:02:26;24.30;84.10
56308;DHT22;42217;50.422;7.210;2023-07-13T14:04:58;24.60;83.50
56308;DHT22;42217;50.422;7.210;2023-07-13T14:07:24;24.80;83.40
56308;DHT22;42217;50.422;7.210;2023-07-13T14:09:51;25.30;83.00
56308;DHT22;42217;50.422;7.210;2023-07-13T14:12:17;25.70;82.80
56308;DHT22;42217;50.422;7.210;2023-07-13T14:14:43;26.20;81.50
56308;DHT22;42217;50.422;7.210;2023-07-13T14:17:30;26.70;81.00
56308;DHT22;42217;50.422;7.210;2023-07-13T14:19:56;26.10;79.50
56308;DHT22;42217;50.422;7.210;2023-07-13T14:22:26;25.60;81.70
56308;DHT22;42217;50.422;7.210;2023-07-13T14:24:53;25.50;82.30
56308;DHT22;42217;50.422;7.210;2023-07-13T14:27:19;25.20;81.50
56308;DHT22;42217;50.422;7.210;2023-07-13T14:29:45;24.80;82.20
56308;DHT22;42217;50.422;7.210;2023-07-13T14:32:12;24.30;83.40
56308;DHT22;42217;50.422;7.210;2023-07-13T14:34:38;24.40;83.50
56308;DHT22;42217;50.422;7.210;2023-07-13T14:37:04;24.40;84.00
56308;DHT22;42217;50.422;7.210;2023-07-13T14:39:31;24.30;83.60
56308;DHT22;42217;50.422;7.210;2023-07-13T14:41:57;24.10;84.70
56308;DHT22;42217;50.422;7.210;2023-07-13T14:44:30;24.90;83.80
56308;DHT22;42217;50.422;7.210;2023-07-13T14:47:02;25.40;82.30
56308;DHT22;42217;50.422;7.210;2023-07-13T14:49:40;25.60;82.00
56308;DHT22;42217;50.422;7.210;2023-07-13T14:52:19;25.60;82.30
56308;DHT22;42217;50.422;7.210;2023-07-13T14:54:45;25.60;81.70
56308;DHT22;42217;50.422;7.210;2023-07-13T14:57:12;25.90;82.00
56308;DHT22;42217;50.422;7.210;2023-07-13T14:59:38;26.10;79.50
56308;DHT22;42217;50.422;7.210;2023-07-13T15:04:52;25.90;80.90
56308;DHT22;42217;50.422;7.210;2023-07-13T15:07:17;25.10;80.90
56308;DHT22;42217;50.422;7.210;2023-07-13T15:09:46;24.40;82.30
56308;DHT22;42217;50.422;7.210;2023-07-13T15:12:13;24.40;82.70
56308;DHT22;42217;50.422;7.210;2023-07-13T15:14:39;24.90;82.70
56308;DHT22;42217;50.422;7.210;2023-07-13T15:17:05;26.70;79.50
56308;DHT22;42217;50.422;7.210;2023-07-13T15:19:31;28.80;77.60
56308;DHT22;42217;50.422;7.210;2023-07-13T15:21:57;29.80;74.80
56308;DHT22;42217;50.422;7.210;2023-07-13T15:24:23;30.70;73.00
56308;DHT22;42217;50.422;7.210;2023-07-13T15:26:49;31.10;71.00
56308;DHT22;42217;50.422;7.210;2023-07-13T15:29:16;30.60;70.60
56308;DHT22;42217;50.422;7.210;2023-07-13T15:31:42;30.30;69.90
56308;DHT22;42217;50.422;7.210;2023-07-13T15:34:13;29.90;70.00
56308;DHT22;42217;50.422;7.210;2023-07-13T15:36:39;29.60;69.40
56308;DHT22;42217;50.422;7.210;2023-07-13T15:39:05;29.70;69.80
56308;DHT22;42217;50.422;7.210;2023-07-13T15:41:31;29.30;69.00
56308;DHT22;42217;50.422;7.210;2023-07-13T15:43:58;29.00;69.20
56308;DHT22;42217;50.422;7.210;2023-07-13T15:46:25;29.40;68.70
56308;DHT22;42217;50.422;7.210;2023-07-13T15:48:52;28.50;69.50
56308;DHT22;42217;50.422;7.210;2023-07-13T15:51:30;28.00;69.90
56308;DHT22;42217;50.422;7.210;2023-07-13T15:54:01;28.70;69.80
56308;DHT22;42217;50.422;7.210;2023-07-13T15:56:35;29.20;68.30
56308;DHT22;42217;50.422;7.210;2023-07-13T15:59:02;28.80;67.90
56308;DHT22;42217;50.422;7.210;2023-07-13T16:01:29;28.00;68.30
56308;DHT22;42217;50.422;7.210;2023-07-13T16:03:55;26.60;70.70
56308;DHT22;42217;50.422;7.210;2023-07-13T16:06:28;25.90;72.50
56308;DHT22;42217;50.422;7.210;2023-07-13T16:08:54;25.60;73.10
56308;DHT22;42217;50.422;7.210;2023-07-13T16:11:26;25.10;73.90
56308;DHT22;42217;50.422;7.210;2023-07-13T16:13:52;24.80;75.20
56308;DHT22;42217;50.422;7.210;2023-07-13T16:16:28;24.60;75.30
56308;DHT22;42217;50.422;7.210;2023-07-13T16:18:56;24.30;76.10
56308;DHT22;42217;50.422;7.210;2023-07-13T16:21:27;24.00;76.30
56308;DHT22;42217;50.422;7.210;2023-07-13T16:23:54;23.60;77.50
56308;DHT22;42217;50.422;7.210;2023-07-13T16:26:27;23.30;78.60
56308;DHT22;42217;50.422;7.210;2023-07-13T16:28:54;23.30;79.30
56308;DHT22;42217;50.422;7.210;2023-07-13T16:31:29;23.80;78.80